sensor_id;sensor_type;location;lat;lon;timestamp;P1;durP1;ratioP1;P2;durP2;ratioP2
27539;SDS011;15906;52.046;4.724;2022-07-29T00:00:35;2.53;;;1.23;;
27539;SDS011;15906;52.046;4.724;2022-07-29T00:03:02;2.88;;;1.48;;
27539;SDS011;15906;52.046;4.724;2022-07-29T00:05:27;3.40;;;1.23;;
27539;SDS011;15906;52.046;4.724;2022-07-29T00:07:53;1.98;;;1.20;;
27539;SDS011;15906;52.046;4.724;2022-07-29T00:10:19;2.83;;;1.35;;
27539;SDS011;15906;52.046;4.724;2022-07-29T00:12:44;3.55;;;1.45;;
27539;SDS011;15906;52.046;4.724;2022-07-29T00:15:10;1.48;;;1.27;;
27539;SDS011;15906;52.046;4.724;2022-07-29T00:17:35;5.25;;;1.40;;
27539;SDS011;15906;52.046;4.724;2022-07-29T00:20:01;2.28;;;1.30;;
27539;SDS011;15906;52.046;4.724;2022-07-29T00:22:26;4.38;;;1.55;;
27539;SDS011;15906;52.046;4.724;2022-07-29T00:24:52;1.92;;;1.30;;
27539;SDS011;15906;52.046;4.724;2022-07-29T00:27:17;2.38;;;1.40;;
27539;SDS011;15906;52.046;4.724;2022-07-29T00:29:43;4.00;;;1.60;;
27539;SDS011;15906;52.046;4.724;2022-07-29T00:32:09;3.13;;;1.27;;
27539;SDS011;15906;52.046;4.724;2022-07-29T00:34:34;5.03;;;1.60;;
27539;SDS011;15906;52.046;4.724;2022-07-29T00:37:18;4.85;;;1.83;;
27539;SDS011;15906;52.046;4.724;2022-07-29T00:39:44;4.32;;;1.63;;
27539;SDS011;15906;52.046;4.724;2022-07-29T00:42:09;5.45;;;1.50;;
27539;SDS011;15906;52.046;4.724;2022-07-29T00:44:36;4.65;;;2.08;;
27539;SDS011;15906;52.046;4.724;2022-07-29T00:47:02;2.25;;;1.20;;
27539;SDS011;15906;52.046;4.724;2022-07-29T00:49:28;3.83;;;1.30;;
27539;SDS011;15906;52.046;4.724;2022-07-29T00:51:54;3.97;;;1.50;;
27539;SDS011;15906;52.046;4.724;2022-07-29T00:54:19;3.08;;;1.65;;
27539;SDS011;15906;52.046;4.724;2022-07-29T00:56:45;5.00;;;1.63;;
27539;SDS011;15906;52.046;4.724;2022-07-29T00:59:10;4.95;;;1.70;;
27539;SDS011;15906;52.046;4.724;2022-07-29T01:01:36;3.17;;;1.50;;
27539;SDS011;15906;52.046;4.724;2022-07-29T01:04:01;3.05;;;1.40;;
27539;SDS011;15906;52.046;4.724;2022-07-29T01:06:27;2.47;;;1.40;;
27539;SDS011;15906;52.046;4.724;2022-07-29T01:08:53;3.20;;;1.98;;
27539;SDS011;15906;52.046;4.724;2022-07-29T01:11:19;3.05;;;1.58;;
27539;SDS011;15906;52.046;4.724;2022-07-29T01:13:45;4.85;;;1.33;;
27539;SDS011;15906;52.046;4.724;2022-07-29T01:16:22;2.20;;;1.65;;
27539;SDS011;15906;52.046;4.724;2022-07-29T01:19:27;2.33;;;1.60;;
27539;SDS011;15906;52.046;4.724;2022-07-29T01:31:54;3.47;;;1.40;;
27539;SDS011;15906;52.046;4.724;2022-07-29T01:38:02;3.25;;;1.52;;
27539;SDS011;15906;52.046;4.724;2022-07-29T01:41:02;3.78;;;1.60;;
27539;SDS011;15906;52.046;4.724;2022-07-29T01:44:02;6.22;;;1.58;;
27539;SDS011;15906;52.046;4.724;2022-07-29T01:46:45;3.28;;;1.70;;
27539;SDS011;15906;52.046;4.724;2022-07-29T01:49:41;3.40;;;1.65;;
27539;SDS011;15906;52.046;4.724;2022-07-29T01:52:35;2.53;;;1.50;;
27539;SDS011;15906;52.046;4.724;2022-07-29T01:55:12;4.22;;;1.90;;
27539;SDS011;15906;52.046;4.724;2022-07-29T01:57:42;2.75;;;1.40;;
27539;SDS011;15906;52.046;4.724;2022-07-29T02:00:09;2.65;;;1.63;;
27539;SDS011;15906;52.046;4.724;2022-07-29T02:02:37;5.35;;;1.60;;
27539;SDS011;15906;52.046;4.724;2022-07-29T02:05:05;5.40;;;1.58;;
27539;SDS011;15906;52.046;4.724;2022-07-29T02:07:35;1.42;;;1.27;;
27539;SDS011;15906;52.046;4.724;2022-07-29T02:10:02;3.25;;;1.45;;
27539;SDS011;15906;52.046;4.724;2022-07-29T02:12:29;10.48;;;2.13;;
27539;SDS011;15906;52.046;4.724;2022-07-29T02:14:57;6.25;;;1.92;;
27539;SDS011;15906;52.046;4.724;2022-07-29T02:17:27;3.50;;;1.58;;
27539;SDS011;15906;52.046;4.724;2022-07-29T02:19:58;4.10;;;1.40;;
27539;SDS011;15906;52.046;4.724;2022-07-29T02:22:26;3.65;;;1.80;;
27539;SDS011;15906;52.046;4.724;2022-07-29T02:24:54;2.17;;;1.65;;
27539;SDS011;15906;52.046;4.724;2022-07-29T02:27:21;4.28;;;1.50;;
27539;SDS011;15906;52.046;4.724;2022-07-29T02:29:48;3.75;;;1.58;;
27539;SDS011;15906;52.046;4.724;2022-07-29T02:32:15;2.70;;;1.50;;
27539;SDS011;15906;52.046;4.724;2022-07-29T02:34:41;5.45;;;1.73;;
27539;SDS011;15906;52.046;4.724;2022-07-29T02:37:09;3.22;;;1.98;;
27539;SDS011;15906;52.046;4.724;2022-07-29T02:39:36;4.65;;;1.92;;
27539;SDS011;15906;52.046;4.724;2022-07-29T02:42:04;6.03;;;1.92;;
27539;SDS011;15906;52.046;4.724;2022-07-29T02:44:32;3.30;;;1.73;;
27539;SDS011;15906;52.046;4.724;2022-07-29T02:49:52;3.55;;;1.88;;
27539;SDS011;15906;52.046;4.724;2022-07-29T02:52:38;2.50;;;1.67;;
27539;SDS011;15906;52.046;4.724;2022-07-29T02:55:29;3.63;;;2.13;;
27539;SDS011;15906;52.046;4.724;2022-07-29T02:58:21;7.32;;;2.15;;
27539;SDS011;15906;52.046;4.724;2022-07-29T03:00:53;8.60;;;1.95;;
27539;SDS011;15906;52.046;4.724;2022-07-29T03:03:23;4.63;;;2.20;;
27539;SDS011;15906;52.046;4.724;2022-07-29T03:05:56;1.75;;;1.65;;
27539;SDS011;15906;52.046;4.724;2022-07-29T03:08:23;3.95;;;1.77;;
27539;SDS011;15906;52.046;4.724;2022-07-29T03:10:49;4.57;;;2.03;;
27539;SDS011;15906;52.046;4.724;2022-07-29T03:13:17;2.65;;;1.98;;
27539;SDS011;15906;52.046;4.724;2022-07-29T03:15:44;3.75;;;2.17;;
27539;SDS011;15906;52.046;4.724;2022-07-29T03:18:11;4.53;;;2.22;;
27539;SDS011;15906;52.046;4.724;2022-07-29T03:20:37;4.00;;;2.28;;
27539;SDS011;15906;52.046;4.724;2022-07-29T03:23:04;3.22;;;2.17;;
27539;SDS011;15906;52.046;4.724;2022-07-29T03:25:30;6.90;;;2.40;;
27539;SDS011;15906;52.046;4.724;2022-07-29T03:27:56;4.75;;;2.25;;
27539;SDS011;15906;52.046;4.724;2022-07-29T03:30:22;9.00;;;2.80;;
27539;SDS011;15906;52.046;4.724;2022-07-29T03:32:48;4.40;;;2.42;;
27539;SDS011;15906;52.046;4.724;2022-07-29T03:35:15;3.72;;;2.22;;
27539;SDS011;15906;52.046;4.724;2022-07-29T03:37:41;5.20;;;2.92;;
27539;SDS011;15906;52.046;4.724;2022-07-29T03:40:07;4.10;;;2.33;;
27539;SDS011;15906;52.046;4.724;2022-07-29T03:42:35;3.55;;;2.45;;
27539;SDS011;15906;52.046;4.724;2022-07-29T03:45:08;7.32;;;2.72;;
27539;SDS011;15906;52.046;4.724;2022-07-29T03:47:38;5.30;;;2.60;;
27539;SDS011;15906;52.046;4.724;2022-07-29T03:50:08;7.85;;;2.85;;
27539;SDS011;15906;52.046;4.724;2022-07-29T03:52:38;3.67;;;2.75;;
27539;SDS011;15906;52.046;4.724;2022-07-29T03:55:03;4.30;;;2.35;;
27539;SDS011;15906;52.046;4.724;2022-07-29T03:57:30;5.38;;;2.85;;
27539;SDS011;15906;52.046;4.724;2022-07-29T03:59:56;4.65;;;2.55;;
27539;SDS011;15906;52.046;4.724;2022-07-29T04:02:22;5.65;;;2.40;;
27539;SDS011;15906;52.046;4.724;2022-07-29T04:04:50;6.18;;;2.63;;
27539;SDS011;15906;52.046;4.724;2022-07-29T04:07:15;10.13;;;2.50;;
27539;SDS011;15906;52.046;4.724;2022-07-29T04:09:41;3.33;;;2.47;;
27539;SDS011;15906;52.046;4.724;2022-07-29T04:12:07;4.18;;;2.35;;
27539;SDS011;15906;52.046;4.724;2022-07-29T04:14:34;3.33;;;2.63;;
27539;SDS011;15906;52.046;4.724;2022-07-29T04:17:03;4.47;;;2.50;;
27539;SDS011;15906;52.046;4.724;2022-07-29T04:19:29;8.07;;;2.78;;
27539;SDS011;15906;52.046;4.724;2022-07-29T04:21:56;4.00;;;1.98;;
27539;SDS011;15906;52.046;4.724;2022-07-29T04:24:25;2.65;;;2.15;;
27539;SDS011;15906;52.046;4.724;2022-07-29T04:26:50;2.60;;;2.05;;
27539;SDS011;15906;52.046;4.724;2022-07-29T04:29:16;4.22;;;2.25;;
27539;SDS011;15906;52.046;4.724;2022-07-29T04:31:42;2.55;;;2.22;;
27539;SDS011;15906;52.046;4.724;2022-07-29T04:34:08;5.82;;;2.60;;
27539;SDS011;15906;52.046;4.724;2022-07-29T04:36:33;4.72;;;2.03;;
27539;SDS011;15906;52.046;4.724;2022-07-29T04:38:59;5.72;;;2.50;;
27539;SDS011;15906;52.046;4.724;2022-07-29T04:41:26;3.30;;;2.22;;
27539;SDS011;15906;52.046;4.724;2022-07-29T04:43:52;3.10;;;2.42;;
27539;SDS011;15906;52.046;4.724;2022-07-29T04:46:18;3.80;;;1.92;;
27539;SDS011;15906;52.046;4.724;2022-07-29T04:48:45;2.92;;;2.13;;
27539;SDS011;15906;52.046;4.724;2022-07-29T04:51:11;5.88;;;1.98;;
27539;SDS011;15906;52.046;4.724;2022-07-29T04:53:37;4.38;;;2.00;;
27539;SDS011;15906;52.046;4.724;2022-07-29T04:56:02;5.30;;;2.20;;
27539;SDS011;15906;52.046;4.724;2022-07-29T04:58:28;7.40;;;2.38;;
27539;SDS011;15906;52.046;4.724;2022-07-29T05:00:54;3.78;;;2.08;;
27539;SDS011;15906;52.046;4.724;2022-07-29T05:03:19;2.83;;;2.20;;
27539;SDS011;15906;52.046;4.724;2022-07-29T05:05:45;3.90;;;1.90;;
27539;SDS011;15906;52.046;4.724;2022-07-29T05:08:10;2.42;;;2.00;;
27539;SDS011;15906;52.046;4.724;2022-07-29T05:10:36;12.38;;;2.70;;
27539;SDS011;15906;52.046;4.724;2022-07-29T05:13:03;8.20;;;2.30;;
27539;SDS011;15906;52.046;4.724;2022-07-29T05:15:31;3.55;;;2.42;;
27539;SDS011;15906;52.046;4.724;2022-07-29T05:17:57;4.30;;;2.35;;
27539;SDS011;15906;52.046;4.724;2022-07-29T05:20:23;4.78;;;2.20;;
27539;SDS011;15906;52.046;4.724;2022-07-29T05:22:52;4.32;;;2.03;;
27539;SDS011;15906;52.046;4.724;2022-07-29T05:25:19;3.35;;;2.22;;
27539;SDS011;15906;52.046;4.724;2022-07-29T05:27:44;4.95;;;1.90;;
27539;SDS011;15906;52.046;4.724;2022-07-29T05:30:10;5.28;;;2.08;;
27539;SDS011;15906;52.046;4.724;2022-07-29T05:32:36;3.85;;;2.35;;
27539;SDS011;15906;52.046;4.724;2022-07-29T05:35:01;5.50;;;1.80;;
27539;SDS011;15906;52.046;4.724;2022-07-29T05:37:27;4.05;;;2.00;;
27539;SDS011;15906;52.046;4.724;2022-07-29T05:39:52;4.32;;;2.28;;
27539;SDS011;15906;52.046;4.724;2022-07-29T05:42:18;3.88;;;1.90;;
27539;SDS011;15906;52.046;4.724;2022-07-29T05:44:44;3.03;;;2.10;;
27539;SDS011;15906;52.046;4.724;2022-07-29T05:47:09;2.30;;;2.00;;
27539;SDS011;15906;52.046;4.724;2022-07-29T05:49:34;4.72;;;2.03;;
27539;SDS011;15906;52.046;4.724;2022-07-29T05:52:00;3.70;;;2.33;;
27539;SDS011;15906;52.046;4.724;2022-07-29T05:54:25;4.70;;;2.13;;
27539;SDS011;15906;52.046;4.724;2022-07-29T05:56:51;5.72;;;2.50;;
27539;SDS011;15906;52.046;4.724;2022-07-29T05:59:16;4.82;;;2.60;;
27539;SDS011;15906;52.046;4.724;2022-07-29T06:01:42;4.20;;;2.30;;
27539;SDS011;15906;52.046;4.724;2022-07-29T06:04:07;4.93;;;2.00;;
27539;SDS011;15906;52.046;4.724;2022-07-29T06:06:33;4.32;;;2.53;;
27539;SDS011;15906;52.046;4.724;2022-07-29T06:08:59;6.68;;;2.20;;
27539;SDS011;15906;52.046;4.724;2022-07-29T06:11:25;6.35;;;2.35;;
27539;SDS011;15906;52.046;4.724;2022-07-29T06:13:51;3.60;;;2.15;;
27539;SDS011;15906;52.046;4.724;2022-07-29T06:16:16;4.10;;;2.33;;
27539;SDS011;15906;52.046;4.724;2022-07-29T06:18:42;4.68;;;2.60;;
27539;SDS011;15906;52.046;4.724;2022-07-29T06:21:08;4.47;;;2.58;;
27539;SDS011;15906;52.046;4.724;2022-07-29T06:23:37;5.68;;;2.08;;
27539;SDS011;15906;52.046;4.724;2022-07-29T06:26:03;4.20;;;2.20;;
27539;SDS011;15906;52.046;4.724;2022-07-29T06:28:30;2.72;;;2.10;;
27539;SDS011;15906;52.046;4.724;2022-07-29T06:30:55;2.65;;;1.90;;
27539;SDS011;15906;52.046;4.724;2022-07-29T06:33:21;3.17;;;2.17;;
27539;SDS011;15906;52.046;4.724;2022-07-29T06:35:46;6.80;;;2.65;;
27539;SDS011;15906;52.046;4.724;2022-07-29T06:38:12;3.72;;;2.17;;
27539;SDS011;15906;52.046;4.724;2022-07-29T06:40:42;5.00;;;2.15;;
27539;SDS011;15906;52.046;4.724;2022-07-29T06:43:31;6.28;;;2.08;;
27539;SDS011;15906;52.046;4.724;2022-07-29T06:46:06;6.68;;;2.25;;
27539;SDS011;15906;52.046;4.724;2022-07-29T06:48:34;5.15;;;1.90;;
27539;SDS011;15906;52.046;4.724;2022-07-29T06:51:01;3.40;;;1.80;;
27539;SDS011;15906;52.046;4.724;2022-07-29T06:53:27;3.20;;;2.03;;
27539;SDS011;15906;52.046;4.724;2022-07-29T06:55:53;4.07;;;2.10;;
27539;SDS011;15906;52.046;4.724;2022-07-29T06:58:19;3.40;;;2.50;;
27539;SDS011;15906;52.046;4.724;2022-07-29T07:00:45;5.90;;;2.45;;
27539;SDS011;15906;52.046;4.724;2022-07-29T07:03:12;2.40;;;2.05;;
27539;SDS011;15906;52.046;4.724;2022-07-29T07:05:38;7.78;;;2.30;;
27539;SDS011;15906;52.046;4.724;2022-07-29T07:08:04;4.07;;;2.22;;
27539;SDS011;15906;52.046;4.724;2022-07-29T07:10:30;5.25;;;2.35;;
27539;SDS011;15906;52.046;4.724;2022-07-29T07:12:55;4.55;;;2.75;;
27539;SDS011;15906;52.046;4.724;2022-07-29T07:15:21;5.07;;;2.50;;
27539;SDS011;15906;52.046;4.724;2022-07-29T07:17:49;7.97;;;2.55;;
27539;SDS011;15906;52.046;4.724;2022-07-29T07:20:16;7.40;;;2.40;;
27539;SDS011;15906;52.046;4.724;2022-07-29T07:22:42;8.65;;;3.47;;
27539;SDS011;15906;52.046;4.724;2022-07-29T07:25:07;4.55;;;2.15;;
27539;SDS011;15906;52.046;4.724;2022-07-29T07:27:34;4.82;;;2.38;;
27539;SDS011;15906;52.046;4.724;2022-07-29T07:29:59;4.22;;;2.35;;
27539;SDS011;15906;52.046;4.724;2022-07-29T07:32:26;4.63;;;2.42;;
27539;SDS011;15906;52.046;4.724;2022-07-29T07:34:51;3.28;;;2.47;;
27539;SDS011;15906;52.046;4.724;2022-07-29T07:37:17;5.93;;;2.90;;
27539;SDS011;15906;52.046;4.724;2022-07-29T07:39:45;6.82;;;2.80;;
27539;SDS011;15906;52.046;4.724;2022-07-29T07:42:11;5.50;;;2.53;;
27539;SDS011;15906;52.046;4.724;2022-07-29T07:44:37;4.55;;;2.70;;
27539;SDS011;15906;52.046;4.724;2022-07-29T07:47:04;7.35;;;2.75;;
27539;SDS011;15906;52.046;4.724;2022-07-29T07:49:30;3.90;;;2.95;;
27539;SDS011;15906;52.046;4.724;2022-07-29T07:51:55;4.78;;;2.53;;
27539;SDS011;15906;52.046;4.724;2022-07-29T07:54:21;6.38;;;2.80;;
27539;SDS011;15906;52.046;4.724;2022-07-29T07:56:46;6.55;;;2.47;;
27539;SDS011;15906;52.046;4.724;2022-07-29T07:59:16;5.90;;;3.05;;
27539;SDS011;15906;52.046;4.724;2022-07-29T08:01:41;4.47;;;2.83;;
27539;SDS011;15906;52.046;4.724;2022-07-29T08:04:07;3.83;;;2.70;;
27539;SDS011;15906;52.046;4.724;2022-07-29T08:06:33;3.80;;;2.70;;
27539;SDS011;15906;52.046;4.724;2022-07-29T08:09:00;6.90;;;2.70;;
27539;SDS011;15906;52.046;4.724;2022-07-29T08:11:26;5.05;;;2.70;;
27539;SDS011;15906;52.046;4.724;2022-07-29T08:13:52;3.20;;;2.70;;
27539;SDS011;15906;52.046;4.724;2022-07-29T08:16:18;7.90;;;2.90;;
27539;SDS011;15906;52.046;4.724;2022-07-29T08:18:44;3.13;;;2.40;;
27539;SDS011;15906;52.046;4.724;2022-07-29T08:21:10;5.07;;;2.35;;
27539;SDS011;15906;52.046;4.724;2022-07-29T08:23:36;5.63;;;2.60;;
27539;SDS011;15906;52.046;4.724;2022-07-29T08:26:10;4.15;;;2.30;;
27539;SDS011;15906;52.046;4.724;2022-07-29T08:28:37;6.68;;;2.58;;
27539;SDS011;15906;52.046;4.724;2022-07-29T08:31:04;8.15;;;3.05;;
27539;SDS011;15906;52.046;4.724;2022-07-29T08:33:30;5.25;;;2.70;;
27539;SDS011;15906;52.046;4.724;2022-07-29T08:35:56;6.80;;;2.80;;
27539;SDS011;15906;52.046;4.724;2022-07-29T08:38:21;3.33;;;2.50;;
27539;SDS011;15906;52.046;4.724;2022-07-29T08:40:47;3.53;;;2.75;;
27539;SDS011;15906;52.046;4.724;2022-07-29T08:43:13;3.72;;;2.47;;
27539;SDS011;15906;52.046;4.724;2022-07-29T08:48:12;6.85;;;2.95;;
27539;SDS011;15906;52.046;4.724;2022-07-29T08:50:38;7.45;;;2.92;;
27539;SDS011;15906;52.046;4.724;2022-07-29T08:53:07;5.55;;;2.72;;
27539;SDS011;15906;52.046;4.724;2022-07-29T08:55:36;4.78;;;2.60;;
27539;SDS011;15906;52.046;4.724;2022-07-29T08:58:04;6.25;;;2.67;;
27539;SDS011;15906;52.046;4.724;2022-07-29T09:00:30;6.00;;;2.20;;
27539;SDS011;15906;52.046;4.724;2022-07-29T09:02:56;6.43;;;2.80;;
27539;SDS011;15906;52.046;4.724;2022-07-29T09:05:24;4.38;;;2.80;;
27539;SDS011;15906;52.046;4.724;2022-07-29T09:07:51;6.75;;;2.78;;
27539;SDS011;15906;52.046;4.724;2022-07-29T09:10:17;3.42;;;2.72;;
27539;SDS011;15906;52.046;4.724;2022-07-29T09:12:43;7.20;;;2.55;;
27539;SDS011;15906;52.046;4.724;2022-07-29T09:15:09;5.55;;;2.70;;
27539;SDS011;15906;52.046;4.724;2022-07-29T09:17:41;4.18;;;2.60;;
27539;SDS011;15906;52.046;4.724;2022-07-29T09:20:09;4.18;;;2.28;;
27539;SDS011;15906;52.046;4.724;2022-07-29T09:22:40;9.43;;;2.92;;
27539;SDS011;15906;52.046;4.724;2022-07-29T09:25:06;2.88;;;2.13;;
27539;SDS011;15906;52.046;4.724;2022-07-29T09:27:32;5.45;;;2.58;;
27539;SDS011;15906;52.046;4.724;2022-07-29T09:30:08;6.53;;;2.50;;
27539;SDS011;15906;52.046;4.724;2022-07-29T09:32:56;7.55;;;2.95;;
27539;SDS011;15906;52.046;4.724;2022-07-29T09:35:25;6.97;;;2.88;;
27539;SDS011;15906;52.046;4.724;2022-07-29T09:37:51;4.20;;;2.58;;
27539;SDS011;15906;52.046;4.724;2022-07-29T09:40:18;5.00;;;2.63;;
27539;SDS011;15906;52.046;4.724;2022-07-29T09:42:49;4.95;;;3.10;;
27539;SDS011;15906;52.046;4.724;2022-07-29T09:45:34;5.07;;;3.13;;
27539;SDS011;15906;52.046;4.724;2022-07-29T09:48:12;6.10;;;2.83;;
27539;SDS011;15906;52.046;4.724;2022-07-29T09:50:43;10.75;;;3.08;;
27539;SDS011;15906;52.046;4.724;2022-07-29T09:53:11;4.68;;;2.58;;
27539;SDS011;15906;52.046;4.724;2022-07-29T09:55:47;5.50;;;2.80;;
27539;SDS011;15906;52.046;4.724;2022-07-29T09:58:19;6.68;;;2.83;;
27539;SDS011;15906;52.046;4.724;2022-07-29T10:00:47;5.65;;;2.42;;
27539;SDS011;15906;52.046;4.724;2022-07-29T10:03:14;9.32;;;2.85;;
27539;SDS011;15906;52.046;4.724;2022-07-29T10:05:41;7.90;;;2.90;;
27539;SDS011;15906;52.046;4.724;2022-07-29T10:08:07;5.75;;;2.60;;
27539;SDS011;15906;52.046;4.724;2022-07-29T10:10:35;5.63;;;2.50;;
27539;SDS011;15906;52.046;4.724;2022-07-29T10:13:10;9.40;;;2.58;;
27539;SDS011;15906;52.046;4.724;2022-07-29T10:15:38;4.45;;;2.50;;
27539;SDS011;15906;52.046;4.724;2022-07-29T10:18:06;6.82;;;2.50;;
27539;SDS011;15906;52.046;4.724;2022-07-29T10:20:33;6.28;;;2.40;;
27539;SDS011;15906;52.046;4.724;2022-07-29T10:22:59;4.50;;;2.42;;
27539;SDS011;15906;52.046;4.724;2022-07-29T10:25:25;7.45;;;2.40;;
27539;SDS011;15906;52.046;4.724;2022-07-29T10:27:51;7.32;;;3.33;;
27539;SDS011;15906;52.046;4.724;2022-07-29T10:30:18;5.95;;;2.10;;
27539;SDS011;15906;52.046;4.724;2022-07-29T10:32:51;6.03;;;2.20;;
27539;SDS011;15906;52.046;4.724;2022-07-29T10:35:40;3.72;;;2.38;;
27539;SDS011;15906;52.046;4.724;2022-07-29T10:38:30;3.83;;;2.20;;
27539;SDS011;15906;52.046;4.724;2022-07-29T10:43:51;3.85;;;2.70;;
27539;SDS011;15906;52.046;4.724;2022-07-29T10:46:19;3.38;;;2.47;;
27539;SDS011;15906;52.046;4.724;2022-07-29T10:51:56;3.83;;;2.10;;
27539;SDS011;15906;52.046;4.724;2022-07-29T10:59:46;3.60;;;2.42;;
27539;SDS011;15906;52.046;4.724;2022-07-29T11:02:40;4.38;;;2.08;;
27539;SDS011;15906;52.046;4.724;2022-07-29T11:05:17;8.30;;;1.98;;
27539;SDS011;15906;52.046;4.724;2022-07-29T11:10:37;3.58;;;1.73;;
27539;SDS011;15906;52.046;4.724;2022-07-29T11:13:03;5.85;;;1.70;;
27539;SDS011;15906;52.046;4.724;2022-07-29T11:16:57;2.78;;;2.10;;
27539;SDS011;15906;52.046;4.724;2022-07-29T11:23:31;5.25;;;2.63;;
27539;SDS011;15906;52.046;4.724;2022-07-29T11:26:32;4.85;;;2.38;;
27539;SDS011;15906;52.046;4.724;2022-07-29T11:29:03;6.05;;;2.25;;
27539;SDS011;15906;52.046;4.724;2022-07-29T11:31:41;4.28;;;2.33;;
27539;SDS011;15906;52.046;4.724;2022-07-29T11:41:19;6.00;;;2.50;;
27539;SDS011;15906;52.046;4.724;2022-07-29T11:47:36;3.92;;;2.20;;
27539;SDS011;15906;52.046;4.724;2022-07-29T11:51:00;4.25;;;2.47;;
27539;SDS011;15906;52.046;4.724;2022-07-29T11:54:32;5.18;;;2.35;;
27539;SDS011;15906;52.046;4.724;2022-07-29T11:58:04;3.28;;;2.03;;
27539;SDS011;15906;52.046;4.724;2022-07-29T12:01:51;4.03;;;2.08;;
27539;SDS011;15906;52.046;4.724;2022-07-29T12:05:10;7.97;;;2.85;;
27539;SDS011;15906;52.046;4.724;2022-07-29T12:09:06;6.03;;;2.30;;
27539;SDS011;15906;52.046;4.724;2022-07-29T12:12:39;2.88;;;1.92;;
27539;SDS011;15906;52.046;4.724;2022-07-29T12:16:17;4.43;;;1.90;;
27539;SDS011;15906;52.046;4.724;2022-07-29T12:19:42;4.13;;;1.92;;
27539;SDS011;15906;52.046;4.724;2022-07-29T12:23:53;5.75;;;2.00;;
27539;SDS011;15906;52.046;4.724;2022-07-29T12:27:17;4.72;;;1.95;;
27539;SDS011;15906;52.046;4.724;2022-07-29T12:30:46;5.55;;;2.00;;
27539;SDS011;15906;52.046;4.724;2022-07-29T12:34:36;2.55;;;1.80;;
27539;SDS011;15906;52.046;4.724;2022-07-29T12:38:09;3.97;;;1.92;;
27539;SDS011;15906;52.046;4.724;2022-07-29T12:41:46;3.17;;;2.00;;
27539;SDS011;15906;52.046;4.724;2022-07-29T12:45:31;3.90;;;1.92;;
27539;SDS011;15906;52.046;4.724;2022-07-29T12:49:23;5.00;;;2.00;;
27539;SDS011;15906;52.046;4.724;2022-07-29T12:56:34;5.13;;;1.65;;
27539;SDS011;15906;52.046;4.724;2022-07-29T13:00:10;6.55;;;2.13;;
27539;SDS011;15906;52.046;4.724;2022-07-29T13:04:00;4.38;;;2.00;;
27539;SDS011;15906;52.046;4.724;2022-07-29T13:08:09;5.50;;;2.17;;
27539;SDS011;15906;52.046;4.724;2022-07-29T13:15:25;5.40;;;2.47;;
27539;SDS011;15906;52.046;4.724;2022-07-29T13:26:21;8.38;;;2.08;;
27539;SDS011;15906;52.046;4.724;2022-07-29T13:30:03;7.95;;;1.90;;
27539;SDS011;15906;52.046;4.724;2022-07-29T13:33:31;3.53;;;2.10;;
27539;SDS011;15906;52.046;4.724;2022-07-29T13:37:05;9.95;;;2.63;;
27539;SDS011;15906;52.046;4.724;2022-07-29T13:40:32;7.30;;;2.30;;
27539;SDS011;15906;52.046;4.724;2022-07-29T13:44:17;4.40;;;2.13;;
27539;SDS011;15906;52.046;4.724;2022-07-29T13:47:50;5.85;;;3.10;;
27539;SDS011;15906;52.046;4.724;2022-07-29T13:51:21;3.58;;;1.90;;
27539;SDS011;15906;52.046;4.724;2022-07-29T13:55:00;3.47;;;2.00;;
27539;SDS011;15906;52.046;4.724;2022-07-29T13:58:33;3.72;;;2.45;;
27539;SDS011;15906;52.046;4.724;2022-07-29T14:05:24;3.70;;;1.95;;
27539;SDS011;15906;52.046;4.724;2022-07-29T14:08:59;4.10;;;2.20;;
27539;SDS011;15906;52.046;4.724;2022-07-29T14:12:41;6.13;;;2.13;;
27539;SDS011;15906;52.046;4.724;2022-07-29T14:16:19;6.70;;;1.95;;
27539;SDS011;15906;52.046;4.724;2022-07-29T14:19:50;6.03;;;1.73;;
27539;SDS011;15906;52.046;4.724;2022-07-29T14:23:26;3.17;;;1.77;;
27539;SDS011;15906;52.046;4.724;2022-07-29T14:27:27;4.65;;;1.50;;
27539;SDS011;15906;52.046;4.724;2022-07-29T14:30:58;2.92;;;1.33;;
27539;SDS011;15906;52.046;4.724;2022-07-29T14:34:21;5.32;;;1.63;;
27539;SDS011;15906;52.046;4.724;2022-07-29T14:37:57;3.53;;;1.90;;
27539;SDS011;15906;52.046;4.724;2022-07-29T14:41:43;2.92;;;2.05;;
27539;SDS011;15906;52.046;4.724;2022-07-29T14:45:19;3.38;;;1.50;;
27539;SDS011;15906;52.046;4.724;2022-07-29T14:48:57;3.78;;;1.75;;
27539;SDS011;15906;52.046;4.724;2022-07-29T14:52:27;3.97;;;1.38;;
27539;SDS011;15906;52.046;4.724;2022-07-29T14:55:42;7.22;;;1.77;;
27539;SDS011;15906;52.046;4.724;2022-07-29T14:59:25;4.43;;;2.08;;
27539;SDS011;15906;52.046;4.724;2022-07-29T15:02:50;3.60;;;1.80;;
27539;SDS011;15906;52.046;4.724;2022-07-29T15:06:26;7.30;;;1.75;;
27539;SDS011;15906;52.046;4.724;2022-07-29T15:10:07;3.33;;;1.80;;
27539;SDS011;15906;52.046;4.724;2022-07-29T15:13:38;5.25;;;1.77;;
27539;SDS011;15906;52.046;4.724;2022-07-29T15:17:27;5.07;;;1.42;;
27539;SDS011;15906;52.046;4.724;2022-07-29T15:21:00;5.05;;;2.05;;
27539;SDS011;15906;52.046;4.724;2022-07-29T15:24:32;2.72;;;1.30;;
27539;SDS011;15906;52.046;4.724;2022-07-29T15:28:08;3.25;;;1.65;;
27539;SDS011;15906;52.046;4.724;2022-07-29T15:31:48;6.60;;;1.80;;
27539;SDS011;15906;52.046;4.724;2022-07-29T15:35:16;5.00;;;1.75;;
27539;SDS011;15906;52.046;4.724;2022-07-29T15:39:00;3.20;;;1.83;;
27539;SDS011;15906;52.046;4.724;2022-07-29T15:42:47;5.13;;;1.77;;
27539;SDS011;15906;52.046;4.724;2022-07-29T15:49:45;5.95;;;2.05;;
27539;SDS011;15906;52.046;4.724;2022-07-29T15:53:20;2.67;;;1.60;;
27539;SDS011;15906;52.046;4.724;2022-07-29T15:56:57;6.45;;;1.90;;
27539;SDS011;15906;52.046;4.724;2022-07-29T16:00:39;4.60;;;1.92;;
27539;SDS011;15906;52.046;4.724;2022-07-29T16:04:12;2.67;;;1.58;;
27539;SDS011;15906;52.046;4.724;2022-07-29T16:07:44;5.80;;;1.77;;
27539;SDS011;15906;52.046;4.724;2022-07-29T16:11:14;4.97;;;1.60;;
27539;SDS011;15906;52.046;4.724;2022-07-29T16:14:46;2.30;;;1.50;;
27539;SDS011;15906;52.046;4.724;2022-07-29T16:18:12;5.70;;;1.73;;
27539;SDS011;15906;52.046;4.724;2022-07-29T16:21:38;7.05;;;1.90;;
27539;SDS011;15906;52.046;4.724;2022-07-29T16:25:17;3.40;;;1.65;;
27539;SDS011;15906;52.046;4.724;2022-07-29T16:28:41;6.80;;;1.95;;
27539;SDS011;15906;52.046;4.724;2022-07-29T16:32:06;2.67;;;1.50;;
27539;SDS011;15906;52.046;4.724;2022-07-29T16:35:36;4.45;;;1.63;;
27539;SDS011;15906;52.046;4.724;2022-07-29T16:39:09;5.03;;;1.77;;
27539;SDS011;15906;52.046;4.724;2022-07-29T16:42:49;4.50;;;1.70;;
27539;SDS011;15906;52.046;4.724;2022-07-29T16:46:25;2.45;;;1.67;;
27539;SDS011;15906;52.046;4.724;2022-07-29T16:50:02;8.23;;;2.08;;
27539;SDS011;15906;52.046;4.724;2022-07-29T16:53:40;3.72;;;1.45;;
27539;SDS011;15906;52.046;4.724;2022-07-29T16:57:15;8.77;;;1.95;;
27539;SDS011;15906;52.046;4.724;2022-07-29T17:00:48;6.60;;;1.65;;
27539;SDS011;15906;52.046;4.724;2022-07-29T17:04:19;5.05;;;1.70;;
27539;SDS011;15906;52.046;4.724;2022-07-29T17:07:53;4.00;;;1.60;;
27539;SDS011;15906;52.046;4.724;2022-07-29T17:11:26;4.03;;;1.60;;
27539;SDS011;15906;52.046;4.724;2022-07-29T17:15:12;6.15;;;1.67;;
27539;SDS011;15906;52.046;4.724;2022-07-29T17:18:41;3.78;;;1.65;;
27539;SDS011;15906;52.046;4.724;2022-07-29T17:22:14;5.45;;;1.50;;
27539;SDS011;15906;52.046;4.724;2022-07-29T17:25:46;7.72;;;1.88;;
27539;SDS011;15906;52.046;4.724;2022-07-29T17:29:15;5.20;;;1.80;;
27539;SDS011;15906;52.046;4.724;2022-07-29T17:32:55;6.15;;;2.38;;
27539;SDS011;15906;52.046;4.724;2022-07-29T17:36:39;4.07;;;1.58;;
27539;SDS011;15906;52.046;4.724;2022-07-29T17:40:16;9.90;;;2.17;;
27539;SDS011;15906;52.046;4.724;2022-07-29T17:43:50;4.57;;;2.10;;
27539;SDS011;15906;52.046;4.724;2022-07-29T17:47:26;4.60;;;1.75;;
27539;SDS011;15906;52.046;4.724;2022-07-29T17:50:57;4.32;;;1.83;;
27539;SDS011;15906;52.046;4.724;2022-07-29T17:54:18;5.15;;;1.80;;